sensor_id;sensor_type;location;lat;lon;timestamp;P1;durP1;ratioP1;P2;durP2;ratioP2
26036;SDS011;13810;48.376;10.944;2022-07-30T00:00:17;8.68;;;6.10;;
26036;SDS011;13810;48.376;10.944;2022-07-30T00:00:48;8.57;;;5.68;;
26036;SDS011;13810;48.376;10.944;2022-07-30T00:01:19;6.63;;;5.50;;
26036;SDS011;13810;48.376;10.944;2022-07-30T00:01:50;6.88;;;5.03;;
26036;SDS011;13810;48.376;10.944;2022-07-30T00:02:21;6.70;;;5.50;;
26036;SDS011;13810;48.376;10.944;2022-07-30T00:02:52;8.15;;;5.43;;
26036;SDS011;13810;48.376;10.944;2022-07-30T00:03:23;6.35;;;5.38;;
26036;SDS011;13810;48.376;10.944;2022-07-30T00:03:53;8.13;;;5.18;;
26036;SDS011;13810;48.376;10.944;2022-07-30T00:04:24;7.28;;;5.15;;
26036;SDS011;13810;48.376;10.944;2022-07-30T00:04:55;7.40;;;5.45;;
26036;SDS011;13810;48.376;10.944;2022-07-30T00:05:26;8.13;;;5.43;;
26036;SDS011;13810;48.376;10.944;2022-07-30T00:05:56;5.97;;;4.85;;
26036;SDS011;13810;48.376;10.944;2022-07-30T00:06:27;9.50;;;6.07;;
26036;SDS011;13810;48.376;10.944;2022-07-30T00:06:58;6.32;;;5.55;;
26036;SDS011;13810;48.376;10.944;2022-07-30T00:07:29;6.90;;;5.65;;
26036;SDS011;13810;48.376;10.944;2022-07-30T00:08:00;6.78;;;5.80;;
26036;SDS011;13810;48.376;10.944;2022-07-30T00:08:30;7.03;;;5.70;;
26036;SDS011;13810;48.376;10.944;2022-07-30T00:09:01;7.00;;;5.97;;
26036;SDS011;13810;48.376;10.944;2022-07-30T00:09:32;6.28;;;5.18;;
26036;SDS011;13810;48.376;10.944;2022-07-30T00:10:03;10.82;;;5.90;;
26036;SDS011;13810;48.376;10.944;2022-07-30T00:10:34;8.25;;;5.60;;
26036;SDS011;13810;48.376;10.944;2022-07-30T00:11:05;6.65;;;5.43;;
26036;SDS011;13810;48.376;10.944;2022-07-30T00:11:36;9.23;;;5.80;;
26036;SDS011;13810;48.376;10.944;2022-07-30T00:12:07;7.93;;;6.20;;
26036;SDS011;13810;48.376;10.944;2022-07-30T00:12:38;9.70;;;6.47;;
26036;SDS011;13810;48.376;10.944;2022-07-30T00:13:09;7.80;;;6.03;;
26036;SDS011;13810;48.376;10.944;2022-07-30T00:13:39;7.47;;;5.80;;
26036;SDS011;13810;48.376;10.944;2022-07-30T00:14:10;6.07;;;5.20;;
26036;SDS011;13810;48.376;10.944;2022-07-30T00:14:41;6.00;;;5.40;;
26036;SDS011;13810;48.376;10.944;2022-07-30T00:15:12;6.95;;;5.47;;
26036;SDS011;13810;48.376;10.944;2022-07-30T00:15:42;8.40;;;6.13;;
26036;SDS011;13810;48.376;10.944;2022-07-30T00:16:13;11.05;;;5.97;;
26036;SDS011;13810;48.376;10.944;2022-07-30T00:16:44;6.50;;;5.80;;
26036;SDS011;13810;48.376;10.944;2022-07-30T00:17:14;7.20;;;5.65;;
26036;SDS011;13810;48.376;10.944;2022-07-30T00:17:45;7.88;;;5.80;;
26036;SDS011;13810;48.376;10.944;2022-07-30T00:18:16;7.82;;;6.78;;
26036;SDS011;13810;48.376;10.944;2022-07-30T00:18:46;6.80;;;5.80;;
26036;SDS011;13810;48.376;10.944;2022-07-30T00:19:17;8.07;;;5.75;;
26036;SDS011;13810;48.376;10.944;2022-07-30T00:19:48;7.93;;;6.32;;
26036;SDS011;13810;48.376;10.944;2022-07-30T00:20:19;7.30;;;6.10;;
26036;SDS011;13810;48.376;10.944;2022-07-30T00:20:49;7.15;;;6.40;;
26036;SDS011;13810;48.376;10.944;2022-07-30T00:21:20;9.90;;;5.72;;
26036;SDS011;13810;48.376;10.944;2022-07-30T00:21:51;8.00;;;6.03;;
26036;SDS011;13810;48.376;10.944;2022-07-30T00:22:23;7.68;;;5.43;;
26036;SDS011;13810;48.376;10.944;2022-07-30T00:22:54;10.27;;;7.00;;
26036;SDS011;13810;48.376;10.944;2022-07-30T00:23:25;8.73;;;5.90;;
26036;SDS011;13810;48.376;10.944;2022-07-30T00:23:55;8.18;;;6.38;;
26036;SDS011;13810;48.376;10.944;2022-07-30T00:24:26;7.18;;;6.18;;
26036;SDS011;13810;48.376;10.944;2022-07-30T00:24:57;8.50;;;6.07;;
26036;SDS011;13810;48.376;10.944;2022-07-30T00:25:28;8.35;;;6.20;;
26036;SDS011;13810;48.376;10.944;2022-07-30T00:25:58;7.57;;;6.25;;
26036;SDS011;13810;48.376;10.944;2022-07-30T00:26:29;13.23;;;6.55;;
26036;SDS011;13810;48.376;10.944;2022-07-30T00:27:00;8.70;;;6.40;;
26036;SDS011;13810;48.376;10.944;2022-07-30T00:27:30;7.43;;;6.00;;
26036;SDS011;13810;48.376;10.944;2022-07-30T00:28:04;7.82;;;6.90;;
26036;SDS011;13810;48.376;10.944;2022-07-30T00:28:34;8.50;;;6.38;;
26036;SDS011;13810;48.376;10.944;2022-07-30T00:29:05;8.43;;;6.75;;
26036;SDS011;13810;48.376;10.944;2022-07-30T00:29:36;10.35;;;6.65;;
26036;SDS011;13810;48.376;10.944;2022-07-30T00:30:07;8.38;;;6.57;;
26036;SDS011;13810;48.376;10.944;2022-07-30T00:30:38;8.85;;;6.22;;
26036;SDS011;13810;48.376;10.944;2022-07-30T00:31:09;6.97;;;6.28;;
26036;SDS011;13810;48.376;10.944;2022-07-30T00:31:40;7.13;;;6.38;;
26036;SDS011;13810;48.376;10.944;2022-07-30T00:32:11;8.07;;;6.68;;
26036;SDS011;13810;48.376;10.944;2022-07-30T00:32:41;7.45;;;6.28;;
26036;SDS011;13810;48.376;10.944;2022-07-30T00:33:12;9.52;;;6.70;;
26036;SDS011;13810;48.376;10.944;2022-07-30T00:33:43;9.25;;;6.32;;
26036;SDS011;13810;48.376;10.944;2022-07-30T00:34:13;9.63;;;6.10;;
26036;SDS011;13810;48.376;10.944;2022-07-30T00:34:44;7.55;;;6.40;;
26036;SDS011;13810;48.376;10.944;2022-07-30T00:35:15;7.43;;;5.57;;
26036;SDS011;13810;48.376;10.944;2022-07-30T00:35:46;7.28;;;5.85;;
26036;SDS011;13810;48.376;10.944;2022-07-30T00:36:16;7.25;;;6.50;;
26036;SDS011;13810;48.376;10.944;2022-07-30T00:36:47;8.50;;;5.82;;
26036;SDS011;13810;48.376;10.944;2022-07-30T00:37:18;6.53;;;5.43;;
26036;SDS011;13810;48.376;10.944;2022-07-30T00:37:48;7.50;;;6.35;;
26036;SDS011;13810;48.376;10.944;2022-07-30T00:38:19;7.70;;;5.55;;
26036;SDS011;13810;48.376;10.944;2022-07-30T00:38:49;6.85;;;5.50;;
26036;SDS011;13810;48.376;10.944;2022-07-30T00:39:20;6.57;;;5.82;;
26036;SDS011;13810;48.376;10.944;2022-07-30T00:39:51;10.60;;;5.82;;
26036;SDS011;13810;48.376;10.944;2022-07-30T00:40:22;8.02;;;6.22;;
26036;SDS011;13810;48.376;10.944;2022-07-30T00:40:52;10.13;;;6.65;;
26036;SDS011;13810;48.376;10.944;2022-07-30T00:41:23;6.72;;;5.43;;
26036;SDS011;13810;48.376;10.944;2022-07-30T00:41:58;9.25;;;5.88;;
26036;SDS011;13810;48.376;10.944;2022-07-30T00:42:40;10.68;;;5.57;;
26036;SDS011;13810;48.376;10.944;2022-07-30T00:43:15;7.30;;;5.40;;
26036;SDS011;13810;48.376;10.944;2022-07-30T00:43:46;6.90;;;5.95;;
26036;SDS011;13810;48.376;10.944;2022-07-30T00:44:17;6.95;;;5.50;;
26036;SDS011;13810;48.376;10.944;2022-07-30T00:44:48;12.07;;;6.10;;
26036;SDS011;13810;48.376;10.944;2022-07-30T00:45:18;8.52;;;5.75;;
26036;SDS011;13810;48.376;10.944;2022-07-30T00:45:49;5.60;;;4.88;;
26036;SDS011;13810;48.376;10.944;2022-07-30T00:46:20;9.45;;;5.22;;
26036;SDS011;13810;48.376;10.944;2022-07-30T00:46:51;6.10;;;5.38;;
26036;SDS011;13810;48.376;10.944;2022-07-30T00:47:22;7.75;;;6.10;;
26036;SDS011;13810;48.376;10.944;2022-07-30T00:47:53;7.15;;;5.38;;
26036;SDS011;13810;48.376;10.944;2022-07-30T00:48:24;8.90;;;5.85;;
26036;SDS011;13810;48.376;10.944;2022-07-30T00:48:54;6.40;;;5.35;;
26036;SDS011;13810;48.376;10.944;2022-07-30T00:49:25;6.97;;;5.57;;
26036;SDS011;13810;48.376;10.944;2022-07-30T00:49:56;7.53;;;5.43;;
26036;SDS011;13810;48.376;10.944;2022-07-30T00:50:26;7.40;;;5.38;;
26036;SDS011;13810;48.376;10.944;2022-07-30T00:50:57;7.65;;;5.50;;
26036;SDS011;13810;48.376;10.944;2022-07-30T00:51:28;7.63;;;5.47;;
26036;SDS011;13810;48.376;10.944;2022-07-30T00:51:58;9.82;;;5.50;;
26036;SDS011;13810;48.376;10.944;2022-07-30T00:52:30;7.53;;;5.60;;
26036;SDS011;13810;48.376;10.944;2022-07-30T00:53:01;11.25;;;5.55;;
26036;SDS011;13810;48.376;10.944;2022-07-30T00:53:32;7.22;;;5.80;;
26036;SDS011;13810;48.376;10.944;2022-07-30T00:54:04;7.03;;;5.38;;
26036;SDS011;13810;48.376;10.944;2022-07-30T00:54:34;8.63;;;6.10;;
26036;SDS011;13810;48.376;10.944;2022-07-30T00:55:06;6.95;;;5.43;;
26036;SDS011;13810;48.376;10.944;2022-07-30T00:55:38;6.32;;;5.30;;
26036;SDS011;13810;48.376;10.944;2022-07-30T00:56:09;8.38;;;5.70;;
26036;SDS011;13810;48.376;10.944;2022-07-30T00:56:39;9.20;;;5.50;;
26036;SDS011;13810;48.376;10.944;2022-07-30T00:57:10;8.43;;;5.25;;
26036;SDS011;13810;48.376;10.944;2022-07-30T00:57:41;5.50;;;4.82;;
26036;SDS011;13810;48.376;10.944;2022-07-30T00:58:12;8.90;;;5.80;;
26036;SDS011;13810;48.376;10.944;2022-07-30T00:58:43;8.10;;;4.85;;
26036;SDS011;13810;48.376;10.944;2022-07-30T00:59:14;7.32;;;5.35;;
26036;SDS011;13810;48.376;10.944;2022-07-30T00:59:45;7.85;;;5.45;;
26036;SDS011;13810;48.376;10.944;2022-07-30T01:00:16;6.53;;;5.80;;
26036;SDS011;13810;48.376;10.944;2022-07-30T01:00:47;6.72;;;5.63;;
26036;SDS011;13810;48.376;10.944;2022-07-30T01:01:18;6.00;;;5.25;;
26036;SDS011;13810;48.376;10.944;2022-07-30T01:01:49;6.80;;;5.68;;
26036;SDS011;13810;48.376;10.944;2022-07-30T01:02:20;7.28;;;5.55;;
26036;SDS011;13810;48.376;10.944;2022-07-30T01:02:51;6.85;;;5.55;;
26036;SDS011;13810;48.376;10.944;2022-07-30T01:03:22;8.68;;;5.75;;
26036;SDS011;13810;48.376;10.944;2022-07-30T01:03:52;7.35;;;5.78;;
26036;SDS011;13810;48.376;10.944;2022-07-30T01:04:23;6.65;;;5.30;;
26036;SDS011;13810;48.376;10.944;2022-07-30T01:04:54;7.75;;;5.00;;
26036;SDS011;13810;48.376;10.944;2022-07-30T01:05:24;9.43;;;5.18;;
26036;SDS011;13810;48.376;10.944;2022-07-30T01:05:55;9.07;;;5.32;;
26036;SDS011;13810;48.376;10.944;2022-07-30T01:06:26;6.20;;;5.13;;
26036;SDS011;13810;48.376;10.944;2022-07-30T01:06:57;7.30;;;5.82;;
26036;SDS011;13810;48.376;10.944;2022-07-30T01:07:28;7.55;;;5.70;;
26036;SDS011;13810;48.376;10.944;2022-07-30T01:07:58;7.22;;;5.45;;
26036;SDS011;13810;48.376;10.944;2022-07-30T01:08:29;9.07;;;6.40;;
26036;SDS011;13810;48.376;10.944;2022-07-30T01:09:00;8.30;;;5.80;;
26036;SDS011;13810;48.376;10.944;2022-07-30T01:09:31;6.43;;;5.40;;
26036;SDS011;13810;48.376;10.944;2022-07-30T01:10:02;8.65;;;6.03;;
26036;SDS011;13810;48.376;10.944;2022-07-30T01:10:33;8.68;;;5.90;;
26036;SDS011;13810;48.376;10.944;2022-07-30T01:11:04;8.10;;;6.43;;
26036;SDS011;13810;48.376;10.944;2022-07-30T01:11:36;7.80;;;5.22;;
26036;SDS011;13810;48.376;10.944;2022-07-30T01:12:09;7.38;;;5.60;;
26036;SDS011;13810;48.376;10.944;2022-07-30T01:12:42;9.70;;;5.78;;
26036;SDS011;13810;48.376;10.944;2022-07-30T01:13:14;6.50;;;5.28;;
26036;SDS011;13810;48.376;10.944;2022-07-30T01:13:45;6.10;;;5.50;;
26036;SDS011;13810;48.376;10.944;2022-07-30T01:14:16;7.30;;;5.35;;
26036;SDS011;13810;48.376;10.944;2022-07-30T01:14:47;7.10;;;5.60;;
26036;SDS011;13810;48.376;10.944;2022-07-30T01:15:18;10.27;;;6.25;;
26036;SDS011;13810;48.376;10.944;2022-07-30T01:15:49;6.60;;;5.63;;
26036;SDS011;13810;48.376;10.944;2022-07-30T01:16:20;8.45;;;5.53;;
26036;SDS011;13810;48.376;10.944;2022-07-30T01:16:51;7.60;;;5.93;;
26036;SDS011;13810;48.376;10.944;2022-07-30T01:17:21;7.88;;;5.80;;
26036;SDS011;13810;48.376;10.944;2022-07-30T01:17:54;6.47;;;5.55;;
26036;SDS011;13810;48.376;10.944;2022-07-30T01:18:27;6.82;;;5.88;;
26036;SDS011;13810;48.376;10.944;2022-07-30T01:19:21;5.78;;;4.65;;
26036;SDS011;13810;48.376;10.944;2022-07-30T01:20:15;6.47;;;4.80;;
26036;SDS011;13810;48.376;10.944;2022-07-30T01:20:59;8.30;;;5.93;;
26036;SDS011;13810;48.376;10.944;2022-07-30T01:21:36;6.45;;;5.22;;
26036;SDS011;13810;48.376;10.944;2022-07-30T01:22:10;8.45;;;5.53;;
26036;SDS011;13810;48.376;10.944;2022-07-30T01:23:50;7.85;;;5.90;;
26036;SDS011;13810;48.376;10.944;2022-07-30T01:24:35;6.20;;;5.03;;
26036;SDS011;13810;48.376;10.944;2022-07-30T01:26:08;8.43;;;5.68;;
26036;SDS011;13810;48.376;10.944;2022-07-30T01:26:41;6.57;;;5.03;;
26036;SDS011;13810;48.376;10.944;2022-07-30T01:27:12;6.68;;;5.10;;
26036;SDS011;13810;48.376;10.944;2022-07-30T01:27:54;8.60;;;5.75;;
26036;SDS011;13810;48.376;10.944;2022-07-30T01:28:29;8.43;;;6.10;;
26036;SDS011;13810;48.376;10.944;2022-07-30T01:29:09;6.50;;;5.60;;
26036;SDS011;13810;48.376;10.944;2022-07-30T01:29:42;7.50;;;5.93;;
26036;SDS011;13810;48.376;10.944;2022-07-30T01:30:16;6.90;;;5.72;;
26036;SDS011;13810;48.376;10.944;2022-07-30T01:30:50;6.95;;;5.40;;
26036;SDS011;13810;48.376;10.944;2022-07-30T01:31:23;8.10;;;6.10;;
26036;SDS011;13810;48.376;10.944;2022-07-30T01:31:55;8.63;;;6.22;;
26036;SDS011;13810;48.376;10.944;2022-07-30T01:32:29;9.15;;;6.07;;
26036;SDS011;13810;48.376;10.944;2022-07-30T01:33:02;6.82;;;5.65;;
26036;SDS011;13810;48.376;10.944;2022-07-30T01:33:36;8.48;;;5.28;;
26036;SDS011;13810;48.376;10.944;2022-07-30T01:34:09;8.02;;;5.47;;
26036;SDS011;13810;48.376;10.944;2022-07-30T01:34:43;7.65;;;5.93;;
26036;SDS011;13810;48.376;10.944;2022-07-30T01:35:16;7.40;;;6.15;;
26036;SDS011;13810;48.376;10.944;2022-07-30T01:35:49;10.07;;;5.60;;
26036;SDS011;13810;48.376;10.944;2022-07-30T01:36:21;8.10;;;5.50;;
26036;SDS011;13810;48.376;10.944;2022-07-30T01:36:53;10.00;;;5.82;;
26036;SDS011;13810;48.376;10.944;2022-07-30T01:37:25;6.43;;;5.60;;
26036;SDS011;13810;48.376;10.944;2022-07-30T01:37:58;7.88;;;5.45;;
26036;SDS011;13810;48.376;10.944;2022-07-30T01:38:30;7.60;;;5.90;;
26036;SDS011;13810;48.376;10.944;2022-07-30T01:39:02;8.15;;;6.03;;
26036;SDS011;13810;48.376;10.944;2022-07-30T01:39:34;7.30;;;6.38;;
26036;SDS011;13810;48.376;10.944;2022-07-30T01:40:06;9.10;;;5.82;;
26036;SDS011;13810;48.376;10.944;2022-07-30T01:40:38;6.03;;;5.43;;
26036;SDS011;13810;48.376;10.944;2022-07-30T01:41:12;6.72;;;6.00;;
26036;SDS011;13810;48.376;10.944;2022-07-30T01:41:44;7.05;;;5.78;;
26036;SDS011;13810;48.376;10.944;2022-07-30T01:42:18;6.97;;;5.63;;
26036;SDS011;13810;48.376;10.944;2022-07-30T01:42:51;8.23;;;6.18;;
26036;SDS011;13810;48.376;10.944;2022-07-30T01:43:27;8.18;;;6.20;;
26036;SDS011;13810;48.376;10.944;2022-07-30T01:43:59;9.13;;;6.50;;
26036;SDS011;13810;48.376;10.944;2022-07-30T01:44:32;7.13;;;5.88;;
26036;SDS011;13810;48.376;10.944;2022-07-30T01:45:04;6.95;;;5.60;;
26036;SDS011;13810;48.376;10.944;2022-07-30T01:45:36;6.80;;;6.10;;
26036;SDS011;13810;48.376;10.944;2022-07-30T01:46:07;7.63;;;6.13;;
26036;SDS011;13810;48.376;10.944;2022-07-30T01:46:39;7.90;;;6.07;;
26036;SDS011;13810;48.376;10.944;2022-07-30T01:47:10;7.78;;;5.70;;
26036;SDS011;13810;48.376;10.944;2022-07-30T01:47:44;8.95;;;6.05;;
26036;SDS011;13810;48.376;10.944;2022-07-30T01:48:16;7.30;;;6.43;;
26036;SDS011;13810;48.376;10.944;2022-07-30T01:48:50;7.95;;;6.50;;
26036;SDS011;13810;48.376;10.944;2022-07-30T01:49:21;8.60;;;6.72;;
26036;SDS011;13810;48.376;10.944;2022-07-30T01:49:54;8.70;;;5.97;;
26036;SDS011;13810;48.376;10.944;2022-07-30T01:50:26;8.98;;;6.35;;
26036;SDS011;13810;48.376;10.944;2022-07-30T01:50:59;8.65;;;6.07;;
26036;SDS011;13810;48.376;10.944;2022-07-30T01:51:33;7.43;;;5.75;;
26036;SDS011;13810;48.376;10.944;2022-07-30T01:52:05;7.25;;;6.20;;
26036;SDS011;13810;48.376;10.944;2022-07-30T01:52:39;10.20;;;6.13;;
26036;SDS011;13810;48.376;10.944;2022-07-30T01:53:19;7.05;;;6.30;;
26036;SDS011;13810;48.376;10.944;2022-07-30T01:53:54;9.40;;;6.25;;
26036;SDS011;13810;48.376;10.944;2022-07-30T01:54:27;8.63;;;5.63;;
26036;SDS011;13810;48.376;10.944;2022-07-30T01:54:59;7.75;;;5.90;;
26036;SDS011;13810;48.376;10.944;2022-07-30T01:55:33;9.32;;;6.45;;
26036;SDS011;13810;48.376;10.944;2022-07-30T01:56:05;7.53;;;6.03;;
26036;SDS011;13810;48.376;10.944;2022-07-30T01:56:38;9.25;;;5.95;;
26036;SDS011;13810;48.376;10.944;2022-07-30T01:57:12;8.93;;;6.82;;
26036;SDS011;13810;48.376;10.944;2022-07-30T01:57:44;9.38;;;6.10;;
26036;SDS011;13810;48.376;10.944;2022-07-30T01:58:17;9.75;;;6.30;;
26036;SDS011;13810;48.376;10.944;2022-07-30T01:58:50;9.57;;;6.70;;
26036;SDS011;13810;48.376;10.944;2022-07-30T01:59:23;8.40;;;6.65;;
26036;SDS011;13810;48.376;10.944;2022-07-30T01:59:57;8.10;;;6.35;;
26036;SDS011;13810;48.376;10.944;2022-07-30T02:00:31;8.82;;;6.65;;
26036;SDS011;13810;48.376;10.944;2022-07-30T02:01:05;9.70;;;7.03;;
26036;SDS011;13810;48.376;10.944;2022-07-30T02:01:36;9.90;;;7.03;;
26036;SDS011;13810;48.376;10.944;2022-07-30T02:02:07;10.45;;;7.10;;
26036;SDS011;13810;48.376;10.944;2022-07-30T02:02:37;9.27;;;6.50;;
26036;SDS011;13810;48.376;10.944;2022-07-30T02:03:10;9.75;;;7.35;;
26036;SDS011;13810;48.376;10.944;2022-07-30T02:03:42;9.77;;;7.10;;
26036;SDS011;13810;48.376;10.944;2022-07-30T02:04:12;9.10;;;6.93;;
26036;SDS011;13810;48.376;10.944;2022-07-30T02:04:43;10.23;;;6.90;;
26036;SDS011;13810;48.376;10.944;2022-07-30T02:05:14;10.40;;;6.03;;
26036;SDS011;13810;48.376;10.944;2022-07-30T02:05:47;8.48;;;6.90;;
26036;SDS011;13810;48.376;10.944;2022-07-30T02:06:25;12.13;;;7.30;;
26036;SDS011;13810;48.376;10.944;2022-07-30T02:07:05;8.57;;;6.55;;
26036;SDS011;13810;48.376;10.944;2022-07-30T02:08:26;8.88;;;6.35;;
26036;SDS011;13810;48.376;10.944;2022-07-30T02:08:47;9.60;;;6.38;;
26036;SDS011;13810;48.376;10.944;2022-07-30T02:09:25;10.32;;;6.60;;
26036;SDS011;13810;48.376;10.944;2022-07-30T02:10:30;10.82;;;6.60;;
26036;SDS011;13810;48.376;10.944;2022-07-30T02:11:06;10.48;;;6.40;;
26036;SDS011;13810;48.376;10.944;2022-07-30T02:11:39;7.72;;;6.20;;
26036;SDS011;13810;48.376;10.944;2022-07-30T02:12:32;7.82;;;6.45;;
26036;SDS011;13810;48.376;10.944;2022-07-30T02:13:05;10.80;;;6.28;;
26036;SDS011;13810;48.376;10.944;2022-07-30T02:13:43;9.00;;;7.13;;
26036;SDS011;13810;48.376;10.944;2022-07-30T02:14:20;9.07;;;7.18;;
26036;SDS011;13810;48.376;10.944;2022-07-30T02:15:42;9.30;;;6.85;;
26036;SDS011;13810;48.376;10.944;2022-07-30T02:16:21;9.07;;;7.13;;
26036;SDS011;13810;48.376;10.944;2022-07-30T02:16:56;14.25;;;7.32;;
26036;SDS011;13810;48.376;10.944;2022-07-30T02:17:31;9.93;;;6.82;;
26036;SDS011;13810;48.376;10.944;2022-07-30T02:18:31;9.63;;;6.97;;
26036;SDS011;13810;48.376;10.944;2022-07-30T02:19:28;9.35;;;6.85;;
26036;SDS011;13810;48.376;10.944;2022-07-30T02:20:05;9.68;;;7.18;;
26036;SDS011;13810;48.376;10.944;2022-07-30T02:20:41;10.05;;;7.78;;
26036;SDS011;13810;48.376;10.944;2022-07-30T02:21:16;11.73;;;7.78;;
26036;SDS011;13810;48.376;10.944;2022-07-30T02:21:51;12.23;;;7.57;;
26036;SDS011;13810;48.376;10.944;2022-07-30T02:22:27;10.77;;;8.30;;
26036;SDS011;13810;48.376;10.944;2022-07-30T02:23:05;12.23;;;8.75;;
26036;SDS011;13810;48.376;10.944;2022-07-30T02:23:40;10.50;;;7.75;;
26036;SDS011;13810;48.376;10.944;2022-07-30T02:24:14;11.25;;;7.50;;
26036;SDS011;13810;48.376;10.944;2022-07-30T02:24:48;12.68;;;7.45;;
26036;SDS011;13810;48.376;10.944;2022-07-30T02:25:21;10.32;;;7.70;;
26036;SDS011;13810;48.376;10.944;2022-07-30T02:25:52;12.75;;;8.02;;
26036;SDS011;13810;48.376;10.944;2022-07-30T02:26:25;9.20;;;7.57;;
26036;SDS011;13810;48.376;10.944;2022-07-30T02:27:00;11.95;;;7.78;;
26036;SDS011;13810;48.376;10.944;2022-07-30T02:27:34;11.57;;;7.05;;
26036;SDS011;13810;48.376;10.944;2022-07-30T02:28:08;9.18;;;7.20;;
26036;SDS011;13810;48.376;10.944;2022-07-30T02:28:42;10.27;;;7.70;;
26036;SDS011;13810;48.376;10.944;2022-07-30T02:29:16;10.07;;;7.20;;
26036;SDS011;13810;48.376;10.944;2022-07-30T02:29:49;11.88;;;7.88;;
26036;SDS011;13810;48.376;10.944;2022-07-30T02:30:23;12.30;;;7.95;;
26036;SDS011;13810;48.376;10.944;2022-07-30T02:30:57;11.35;;;8.13;;
26036;SDS011;13810;48.376;10.944;2022-07-30T02:31:30;14.20;;;8.27;;
26036;SDS011;13810;48.376;10.944;2022-07-30T02:32:07;10.98;;;7.65;;
26036;SDS011;13810;48.376;10.944;2022-07-30T02:32:39;12.60;;;7.35;;
26036;SDS011;13810;48.376;10.944;2022-07-30T02:33:12;11.40;;;7.93;;
26036;SDS011;13810;48.376;10.944;2022-07-30T02:33:47;11.82;;;7.80;;
26036;SDS011;13810;48.376;10.944;2022-07-30T02:34:20;13.15;;;8.05;;
26036;SDS011;13810;48.376;10.944;2022-07-30T02:34:54;11.95;;;7.50;;
26036;SDS011;13810;48.376;10.944;2022-07-30T02:35:29;10.20;;;7.78;;
26036;SDS011;13810;48.376;10.944;2022-07-30T02:36:01;10.70;;;8.07;;
26036;SDS011;13810;48.376;10.944;2022-07-30T02:36:34;9.52;;;6.85;;
26036;SDS011;13810;48.376;10.944;2022-07-30T02:37:07;11.63;;;7.03;;
26036;SDS011;13810;48.376;10.944;2022-07-30T02:37:41;11.77;;;7.68;;
26036;SDS011;13810;48.376;10.944;2022-07-30T02:38:14;9.50;;;7.00;;
26036;SDS011;13810;48.376;10.944;2022-07-30T02:38:46;13.20;;;7.63;;
26036;SDS011;13810;48.376;10.944;2022-07-30T02:39:19;13.10;;;8.27;;
26036;SDS011;13810;48.376;10.944;2022-07-30T02:39:51;9.50;;;7.18;;
26036;SDS011;13810;48.376;10.944;2022-07-30T02:40:24;17.52;;;7.60;;
26036;SDS011;13810;48.376;10.944;2022-07-30T02:40:58;9.27;;;7.88;;
26036;SDS011;13810;48.376;10.944;2022-07-30T02:41:30;12.55;;;8.52;;
26036;SDS011;13810;48.376;10.944;2022-07-30T02:42:02;10.90;;;8.48;;
26036;SDS011;13810;48.376;10.944;2022-07-30T02:42:33;13.98;;;8.90;;
26036;SDS011;13810;48.376;10.944;2022-07-30T02:43:06;9.10;;;7.72;;
26036;SDS011;13810;48.376;10.944;2022-07-30T02:43:36;10.48;;;8.35;;
26036;SDS011;13810;48.376;10.944;2022-07-30T02:44:10;9.80;;;7.60;;
26036;SDS011;13810;48.376;10.944;2022-07-30T02:44:41;12.15;;;9.02;;
26036;SDS011;13810;48.376;10.944;2022-07-30T02:45:17;14.38;;;8.13;;
26036;SDS011;13810;48.376;10.944;2022-07-30T02:45:49;13.02;;;8.65;;
26036;SDS011;13810;48.376;10.944;2022-07-30T02:46:20;9.98;;;8.07;;
26036;SDS011;13810;48.376;10.944;2022-07-30T02:46:53;14.07;;;8.38;;
26036;SDS011;13810;48.376;10.944;2022-07-30T02:47:25;12.20;;;7.93;;
26036;SDS011;13810;48.376;10.944;2022-07-30T02:47:59;13.32;;;8.75;;
26036;SDS011;13810;48.376;10.944;2022-07-30T02:48:32;11.35;;;8.18;;
26036;SDS011;13810;48.376;10.944;2022-07-30T02:49:05;12.43;;;8.25;;
26036;SDS011;13810;48.376;10.944;2022-07-30T02:49:38;11.95;;;8.40;;
26036;SDS011;13810;48.376;10.944;2022-07-30T02:50:10;12.60;;;8.60;;
26036;SDS011;13810;48.376;10.944;2022-07-30T02:50:43;10.57;;;8.00;;
26036;SDS011;13810;48.376;10.944;2022-07-30T02:51:15;13.35;;;8.13;;
26036;SDS011;13810;48.376;10.944;2022-07-30T02:51:47;10.98;;;8.35;;
26036;SDS011;13810;48.376;10.944;2022-07-30T02:52:19;17.10;;;8.02;;
26036;SDS011;13810;48.376;10.944;2022-07-30T02:52:52;12.50;;;9.15;;
26036;SDS011;13810;48.376;10.944;2022-07-30T02:53:24;14.20;;;8.82;;
26036;SDS011;13810;48.376;10.944;2022-07-30T02:53:57;12.10;;;8.82;;
26036;SDS011;13810;48.376;10.944;2022-07-30T02:54:29;10.43;;;8.38;;
26036;SDS011;13810;48.376;10.944;2022-07-30T02:55:01;10.63;;;8.25;;
26036;SDS011;13810;48.376;10.944;2022-07-30T02:55:33;12.18;;;8.13;;
26036;SDS011;13810;48.376;10.944;2022-07-30T02:56:04;13.18;;;8.80;;
26036;SDS011;13810;48.376;10.944;2022-07-30T02:56:38;13.88;;;8.25;;
26036;SDS011;13810;48.376;10.944;2022-07-30T02:57:10;13.50;;;8.27;;
26036;SDS011;13810;48.376;10.944;2022-07-30T02:57:43;13.88;;;9.07;;
26036;SDS011;13810;48.376;10.944;2022-07-30T02:58:16;12.07;;;8.45;;
26036;SDS011;13810;48.376;10.944;2022-07-30T02:58:51;14.77;;;8.82;;
26036;SDS011;13810;48.376;10.944;2022-07-30T02:59:22;11.75;;;8.23;;
26036;SDS011;13810;48.376;10.944;2022-07-30T02:59:53;16.00;;;8.13;;
26036;SDS011;13810;48.376;10.944;2022-07-30T03:00:26;12.60;;;8.40;;
26036;SDS011;13810;48.376;10.944;2022-07-30T03:00:59;13.88;;;7.95;;
26036;SDS011;13810;48.376;10.944;2022-07-30T03:01:31;12.15;;;9.43;;
26036;SDS011;13810;48.376;10.944;2022-07-30T03:02:05;14.40;;;8.57;;
26036;SDS011;13810;48.376;10.944;2022-07-30T03:02:38;11.52;;;8.55;;
26036;SDS011;13810;48.376;10.944;2022-07-30T03:03:10;14.60;;;9.23;;
26036;SDS011;13810;48.376;10.944;2022-07-30T03:03:42;12.77;;;8.48;;
26036;SDS011;13810;48.376;10.944;2022-07-30T03:04:15;12.98;;;8.82;;
26036;SDS011;13810;48.376;10.944;2022-07-30T03:04:49;17.52;;;8.93;;
26036;SDS011;13810;48.376;10.944;2022-07-30T03:05:21;12.52;;;8.88;;
26036;SDS011;13810;48.376;10.944;2022-07-30T03:05:54;14.55;;;9.50;;
26036;SDS011;13810;48.376;10.944;2022-07-30T03:06:26;10.82;;;8.55;;
26036;SDS011;13810;48.376;10.944;2022-07-30T03:06:58;13.93;;;8.45;;
26036;SDS011;13810;48.376;10.944;2022-07-30T03:07:30;10.70;;;7.68;;
26036;SDS011;13810;48.376;10.944;2022-07-30T03:08:03;14.30;;;8.00;;
26036;SDS011;13810;48.376;10.944;2022-07-30T03:08:35;10.45;;;7.93;;
26036;SDS011;13810;48.376;10.944;2022-07-30T03:09:06;14.35;;;9.07;;
26036;SDS011;13810;48.376;10.944;2022-07-30T03:09:40;10.02;;;7.78;;
26036;SDS011;13810;48.376;10.944;2022-07-30T03:10:12;13.38;;;8.63;;
26036;SDS011;13810;48.376;10.944;2022-07-30T03:10:45;12.00;;;8.57;;
26036;SDS011;13810;48.376;10.944;2022-07-30T03:11:17;11.80;;;7.68;;
26036;SDS011;13810;48.376;10.944;2022-07-30T03:11:50;11.38;;;8.20;;
26036;SDS011;13810;48.376;10.944;2022-07-30T03:12:22;12.35;;;8.70;;
26036;SDS011;13810;48.376;10.944;2022-07-30T03:12:54;10.15;;;8.02;;
26036;SDS011;13810;48.376;10.944;2022-07-30T03:13:25;10.65;;;7.63;;
26036;SDS011;13810;48.376;10.944;2022-07-30T03:13:56;10.18;;;7.70;;
26036;SDS011;13810;48.376;10.944;2022-07-30T03:14:27;11.50;;;8.55;;
26036;SDS011;13810;48.376;10.944;2022-07-30T03:14:57;11.15;;;7.10;;
26036;SDS011;13810;48.376;10.944;2022-07-30T03:15:28;13.05;;;8.73;;
26036;SDS011;13810;48.376;10.944;2022-07-30T03:16:03;11.70;;;8.13;;
26036;SDS011;13810;48.376;10.944;2022-07-30T03:16:37;11.48;;;7.85;;
26036;SDS011;13810;48.376;10.944;2022-07-30T03:17:12;14.60;;;7.88;;